Flight Track Log - Related Links

Times and Time Zones

All times are in EDT time to prevent confusion due to time zone crossing. See the LXJ534 flight status page for this flight to view local times or setup timezone preferences in your user account.

Time Position Orientation Groundspeed Altitude Reporting Facility
EDT Latitude Longitude Course Direction KTS MPH feet Rate Location/Type
Thu 04:56:47 PM 41.8000 -87.7000 178° South 196 226 2,700  Level Chicago TRACON
Thu 04:58:27 PM 41.7236 -87.6972 220° Southwest 226 260 5,600 2,564 Climbing Chicago Center
Thu 05:00:27 PM 41.6025 -87.8311 232° Southwest 310 357 12,100 3,367 Climbing Chicago Center
Thu 05:01:27 PM 41.5514 -87.9183 234° Southwest 316 364 15,700 3,650 Climbing Chicago Center
Thu 05:02:27 PM 41.5025 -88.0081 231° Southwest 311 358 19,400 2,950 Climbing Chicago Center
Thu 05:03:27 PM 41.4350 -88.1203 217° Southwest 316 364 21,600 1,800 Climbing Chicago Center
Thu 05:04:27 PM 41.3381 -88.2161 198° South 444 511 23,000 1,450 Climbing Chicago Center
Thu 05:05:27 PM 41.2175 -88.2678 198° South 470 541 24,500 1,850 Climbing Chicago Center
Thu 05:06:27 PM 41.0931 -88.3222 205° Southwest 470 541 26,700 2,000 Climbing Chicago Center
Thu 05:07:27 PM 40.9769 -88.3928 218° Southwest 470 541 28,500 1,600 Climbing Chicago Center
Thu 05:08:27 PM 40.8756 -88.4986 218° Southwest 467 537 29,900 1,750 Climbing Chicago Center
Thu 05:09:27 PM 40.7722 -88.6042 217° Southwest 472 543 32,000 2,200 Climbing Chicago Center
Thu 05:10:27 PM 40.6686 -88.7067 218° Southwest 472 543 34,300 1,950 Climbing Chicago Center
Thu 05:11:27 PM 40.5731 -88.8061 217° Southwest 466 536 35,900 1,101 Climbing Chicago Center
Thu 05:13:54 PM 40.3258 -89.0497 218° Southwest 447 514 38,100 1,043 Climbing Kansas City Center
Thu 05:14:54 PM 40.2261 -89.1525 216° Southwest 454 522 39,500 950 Climbing Kansas City Center
Thu 05:15:54 PM 40.1242 -89.2497 218° Southwest 460 529 40,000 250 Climbing Kansas City Center
Thu 05:16:54 PM 40.0244 -89.3522 217° Southwest 460 529 40,000  Level Kansas City Center
Thu 05:17:54 PM 39.9206 -89.4544 217° Southwest 465 535 40,000  Level Kansas City Center
Thu 05:18:54 PM 39.8203 -89.5533 217° Southwest 465 535 40,000  Level Kansas City Center
Thu 05:19:54 PM 39.7161 -89.6550 218° Southwest 465 535 40,000  Level Kansas City Center
Thu 05:20:54 PM 39.6119 -89.7592 218° Southwest 470 541 40,000  Level Kansas City Center
Thu 05:21:54 PM 39.5117 -89.8600 223° Southwest 470 541 40,000  Level Kansas City Center
Thu 05:22:54 PM 39.4219 -89.9678 222° Southwest 455 524 40,000  Level Kansas City Center
Thu 05:23:54 PM 39.3303 -90.0756 221° Southwest 450 518 40,000  Level Kansas City Center
Thu 05:24:54 PM 39.2342 -90.1833 221° Southwest 457 526 40,000  Level Kansas City Center
Thu 05:25:54 PM 39.1419 -90.2878 221° Southwest 457 526 40,000  Level Kansas City Center
Thu 05:26:54 PM 39.0475 -90.3922 221° Southwest 451 519 40,000  Level Kansas City Center
Thu 05:27:55 PM 38.9633 -90.4878 222° Southwest 451 519 40,000  Level Kansas City Center
Thu 05:28:54 PM 38.8628 -90.6053 220° Southwest 451 519 40,000  Level Kansas City Center
Thu 05:29:54 PM 38.7761 -90.6978 223° Southwest 457 526 40,000  Level Kansas City Center
Thu 05:30:54 PM 38.6756 -90.8175 220° Southwest 457 526 40,000  Level Kansas City Center
Thu 05:31:54 PM 38.5889 -90.9094 221° Southwest 452 520 40,000  Level Kansas City Center
Thu 05:32:54 PM 38.4839 -91.0258 222° Southwest 457 526 40,000  Level Kansas City Center
Thu 05:33:54 PM 38.3931 -91.1283 221° Southwest 446 513 40,000  Level Kansas City Center
Thu 05:34:54 PM 38.2997 -91.2303 220° Southwest 453 521 40,000  Level Kansas City Center
Thu 05:35:54 PM 38.2047 -91.3325 221° Southwest 453 521 40,000  Level Kansas City Center
Thu 05:36:54 PM 38.1175 -91.4286 220° Southwest 459 528 40,000  Level Kansas City Center
Thu 05:37:54 PM 38.0219 -91.5300 221° Southwest 459 528 40,000  Level Kansas City Center
Thu 05:38:54 PM 37.9267 -91.6364 220° Southwest 454 522 40,000  Level Kansas City Center
Thu 05:39:54 PM 37.8269 -91.7428 220° Southwest 460 529 40,000  Level Kansas City Center
Thu 05:40:54 PM 37.7311 -91.8461 221° Southwest 460 529 40,000  Level Kansas City Center
Thu 05:41:54 PM 37.6375 -91.9492 220° Southwest 460 529 40,000  Level Kansas City Center
Thu 05:42:54 PM 37.5417 -92.0519 220° Southwest 460 529 40,000  Level Kansas City Center
Thu 05:43:54 PM 37.4456 -92.1544 220° Southwest 460 529 40,000  Level Kansas City Center
Thu 05:44:54 PM 37.3414 -92.2647 221° Southwest 460 529 40,000  Level Kansas City Center
Thu 05:45:54 PM 37.2453 -92.3692 221° Southwest 460 529 40,000  Level Kansas City Center
Thu 05:46:54 PM 37.1511 -92.4708 220° Southwest 460 529 40,000  Level Kansas City Center
Thu 05:49:07 PM 36.9372 -92.6928 220° Southwest 456 525 40,000  Level Memphis Center
Thu 05:50:07 PM 36.8394 -92.7936 220° Southwest 461 531 40,000  Level Memphis Center
Thu 05:51:07 PM 36.7417 -92.8944 219° Southwest 466 536 40,000  Level Memphis Center
Thu 05:52:07 PM 36.6436 -92.9922 222° Southwest 466 536 40,000  Level Memphis Center
Thu 05:53:07 PM 36.5519 -93.0950 220° Southwest 461 531 40,000  Level Memphis Center
Thu 05:54:07 PM 36.4728 -93.1775 220° Southwest 461 531 40,000  Level Memphis Center
Thu 05:55:07 PM 36.3575 -93.2972 219° Southwest 461 531 40,000  Level Memphis Center
Thu 05:56:07 PM 36.2594 -93.3942 220° Southwest 461 531 40,000  Level Memphis Center
Thu 05:57:07 PM 36.1631 -93.4958 219° Southwest 461 531 40,000  Level Memphis Center
Thu 05:58:07 PM 36.0667 -93.5925 220° Southwest 461 531 40,000  Level Memphis Center
Thu 05:59:07 PM 35.9703 -93.6911 219° Southwest 461 531 40,000  Level Memphis Center
Thu 06:00:07 PM 35.8803 -93.7822 220° Southwest 466 536 40,000  Level Memphis Center
Thu 06:01:07 PM 35.7836 -93.8806 220° Southwest 466 536 40,000  Level Memphis Center
Thu 06:02:07 PM 35.6847 -93.9814 219° Southwest 461 531 40,000  Level Memphis Center
Thu 06:03:07 PM 35.5881 -94.0792 219° Southwest 461 531 40,000  Level Memphis Center
Thu 06:04:07 PM 35.4914 -94.1769 219° Southwest 461 531 40,000  Level Memphis Center
Thu 06:05:07 PM 35.3922 -94.2742 219° Southwest 461 531 40,000  Level Memphis Center
Thu 06:06:47 PM 35.2353 -94.4297 221° Southwest 435 501 40,000  Level Fort Worth Center
Thu 06:07:48 PM 35.1375 -94.5322 218° Southwest 430 495 40,000  Level Fort Worth Center
Thu 06:08:47 PM 35.0394 -94.6242 220° Southwest 440 506 40,000  Level Fort Worth Center
Thu 06:09:47 PM 34.9436 -94.7211 220° Southwest 446 513 40,000  Level Fort Worth Center
Thu 06:10:47 PM 34.8475 -94.8178 219° Southwest 451 519 40,000  Level Fort Worth Center
Thu 06:11:47 PM 34.7494 -94.9142 219° Southwest 457 526 40,000  Level Fort Worth Center
Thu 06:12:47 PM 34.6531 -95.0078 213° Southwest 452 520 40,000 -400 Level Fort Worth Center
Thu 06:13:47 PM 34.5483 -95.0889 202° Southwest 452 520 39,200  Descending Fort Worth Center
Thu 06:14:47 PM 34.4306 -95.1475 202° Southwest 452 520 40,000 -2,000 Climbing Fort Worth Center
Thu 06:15:47 PM 34.3106 -95.2058 202° Southwest 458 527 35,200 -3,500 Descending Fort Worth Center
Thu 06:16:47 PM 34.1906 -95.2642 202° Southwest 469 540 33,000 -2,300 Descending Fort Worth Center
Thu 06:17:47 PM 34.0622 -95.3275 204° Southwest 482 555 30,600 -2,250 Descending Fort Worth Center
Thu 06:18:47 PM 33.9422 -95.3931 206° Southwest 492 566 28,500 -2,250 Descending Fort Worth Center
Thu 06:19:47 PM 33.8264 -95.4608 230° Southwest 473 544 26,100 -2,400 Descending Fort Worth Center
Thu 06:20:47 PM 33.7489 -95.5725 235° Southwest 439 505 23,700 -2,550 Descending Fort Worth Center
Thu 06:21:47 PM 33.6856 -95.6811 232° Southwest 416 479 21,000 -2,700 Descending Fort Worth Center
Thu 06:22:47 PM 33.6203 -95.7822 223° Southwest 398 458 18,300 -2,750 Descending Fort Worth Center
Thu 06:23:47 PM 33.5378 -95.8758 218° Southwest 378 435 15,500 -2,550 Descending Fort Worth Center
Thu 06:24:47 PM 33.4656 -95.9444 226° Southwest 378 435 13,200 -2,300 Descending Fort Worth Center
Thu 06:25:47 PM 33.3956 -96.0325 248° West 346 398 10,900 -1,488 Descending Fort Worth Center
Thu 06:26:52 PM 33.3639 -96.1242 241° Southwest 293 337 10,100 -841 Descending FAA TRACON SMA TRACON (SMA)
Thu 06:27:34 PM 33.3367 -96.1825 243° Southwest 289 333 9,400 -825 Descending FAA TRACON SMA TRACON (SMA)
Thu 06:28:12 PM 33.3125 -96.2394 242° Southwest 276 318 9,000 -308 Descending FAA TRACON SMA TRACON (SMA)
Thu 06:28:52 PM 33.2903 -96.2889 239° Southwest 275 316 9,000  Level FAA TRACON SMA TRACON (SMA)
Thu 06:29:32 PM 33.2625 -96.3442 232° Southwest 281 323 9,000 -825 Level FAA TRACON SMA TRACON (SMA)
Thu 06:30:12 PM 33.2297 -96.3950 232° Southwest 278 320 7,900 -1,800 Descending FAA TRACON SMA TRACON (SMA)
Thu 06:30:52 PM 33.2006 -96.4389 234° Southwest 277 319 6,600 -1,800 Descending FAA TRACON SMA TRACON (SMA)
Thu 06:31:32 PM 33.1708 -96.4886 234° Southwest 261 300 5,500 -1,575 Descending FAA TRACON SMA TRACON (SMA)
Thu 06:32:12 PM 33.1419 -96.5356 234° Southwest 255 293 4,500 -1,125 Descending FAA TRACON SMA TRACON (SMA)
Thu 06:32:52 PM 33.1158 -96.5783 232° Southwest 260 299 4,000 -370 Descending FAA TRACON SMA TRACON (SMA)
Thu 06:33:33 PM 33.0850 -96.6261 234° Southwest 263 303 4,000  Level FAA TRACON SMA TRACON (SMA)
Thu 06:34:13 PM 33.0550 -96.6747 233° Southwest 265 305 4,000  Level FAA TRACON SMA TRACON (SMA)
Thu 06:34:53 PM 33.0278 -96.7183 235° Southwest 266 306 4,000 -456 Level FAA TRACON SMA TRACON (SMA)
Thu 06:35:32 PM 32.9989 -96.7669 232° Southwest 264 304 3,400 -835 Descending FAA TRACON SMA TRACON (SMA)
Thu 06:36:12 PM 32.9689 -96.8128 235° Southwest 251 289 2,900 -300 Descending FAA TRACON SMA TRACON (SMA)
Thu 06:36:52 PM 32.9492 -96.8469 221° Southwest 202 232 3,000 -525 Climbing FAA TRACON SMA TRACON (SMA)
Thu 06:37:32 PM 32.9236 -96.8733 192° South 181 208 2,200 -1,125 Descending FAA TRACON SMA TRACON (SMA)
Thu 06:38:12 PM 32.8958 -96.8803 165° South 142 163 1,500 -975 Descending FAA TRACON SMA TRACON (SMA)
Thu 06:38:52 PM 32.8747 -96.8733 137° Southeast 130 150 900 -675 Descending FAA TRACON SMA TRACON (SMA)
Thu 06:39:32 PM 32.8617 -96.8586 315° West 123 142 600 1,234 Descending FAA TRACON SMA TRACON (SMA)
Thu 06:41:47 PM 32.8908 -96.8939 315° West 69 79 4,500 1,733 Climbing Fort Worth Center

Login

Don't have an account? Register now (free) for customized features, flight alerts, and more!